Time;durP1;ratioP1;P1;durP2;ratioP2;P2;SDS_P1;SDS_P2;PMS_P1;PMS_P2;Temp;Humidity;BMP_temperature;BMP_pressure;BME280_temperature;BME280_humidity;BME280_pressure;Samples;Min_cycle;Max_cycle;Signal;HPM_P1;HPM_P2
2022/06/04 00:01:17;;;;;;;17.25;11.05;;;23.60;99.90;;;;;;5053340;28;20366;-75
2022/06/04 00:03:43;;;;;;;15.38;11.13;;;23.60;99.90;;;;;;5053893;28;20079;-75
2022/06/04 00:06:09;;;;;;;20.05;12.25;;;23.50;99.90;;;;;;5054146;28;20483;-76
2022/06/04 00:08:35;;;;;;;18.35;12.07;;;23.50;99.90;;;;;;5053262;28;20028;-77
2022/06/04 00:16:30;;;;;;;16.20;12.80;;;23.40;99.90;;;;;;5053798;28;20087;-76
2022/06/04 00:18:57;;;;;;;17.30;12.10;;;23.30;99.90;;;;;;5053329;28;20052;-74
2022/06/04 00:21:23;;;;;;;23.77;12.98;;;23.20;99.90;;;;;;5051995;28;20021;-77
2022/06/04 00:23:50;;;;;;;24.60;14.00;;;23.20;99.90;;;;;;5052159;28;20071;-76
2022/06/04 00:26:16;;;;;;;26.25;14.45;;;23.20;99.90;;;;;;5052630;28;20033;-76
2022/06/04 00:28:42;;;;;;;21.95;14.27;;;23.10;99.90;;;;;;5052147;28;20013;-76
2022/06/04 00:31:09;;;;;;;23.10;14.25;;;23.00;99.90;;;;;;5052287;28;20127;-75
2022/06/04 00:33:35;;;;;;;23.70;14.20;;;23.00;99.90;;;;;;5052666;28;20029;-75
2022/06/04 00:36:01;;;;;;;19.38;15.10;;;23.00;99.90;;;;;;5053251;28;20021;-77
2022/06/04 00:38:29;;;;;;;23.45;14.02;;;22.90;99.90;;;;;;5053598;28;20029;-74
2022/06/04 00:41:13;;;;;;;17.98;15.25;;;22.80;99.90;;;;;;5053524;28;20470;-76
2022/06/04 00:44:23;;;;;;;24.23;16.73;;;22.70;99.90;;;;;;5051935;28;20120;-75
2022/06/04 00:47:28;;;;;;;23.20;17.55;;;22.60;99.90;;;;;;5053144;28;20021;-75
2022/06/04 00:49:55;;;;;;;24.73;16.58;;;22.40;99.90;;;;;;5030806;28;20049;-77
2022/06/04 00:52:21;;;;;;;20.73;17.85;;;22.40;99.90;;;;;;5014573;28;20071;-76
2022/06/04 00:54:52;;;;;;;29.50;18.80;;;22.20;99.90;;;;;;5031637;28;20057;-77
2022/06/04 00:57:34;;;;;;;24.85;18.48;;;22.20;99.90;;;;;;5034706;28;20082;-75
2022/06/04 01:00:07;;;;;;;22.83;20.25;;;22.10;99.90;;;;;;5035005;28;20029;-76
2022/06/04 01:03:04;;;;;;;25.95;20.35;;;22.10;99.90;;;;;;5034920;28;20033;-77
2022/06/04 01:06:03;;;;;;;29.80;19.75;;;22.00;99.90;;;;;;4956869;29;20039;-76
2022/06/04 01:08:40;;;;;;;29.33;19.90;;;21.90;99.90;;;;;;4956923;29;20037;-77
2022/06/04 01:11:31;;;;;;;24.83;20.75;;;22.00;99.90;;;;;;4956364;29;20491;-76
2022/06/04 01:14:02;;;;;;;23.42;20.65;;;22.00;99.90;;;;;;4956442;29;20470;-78
2022/06/04 01:16:43;;;;;;;20.52;18.33;;;22.00;99.90;;;;;;4956464;29;20122;-75
2022/06/04 01:19:23;;;;;;;25.25;20.38;;;22.00;99.90;;;;;;4956044;29;20181;-76
2022/06/04 01:22:09;;;;;;;25.65;21.17;;;22.00;99.90;;;;;;4995000;28;20130;-77
2022/06/04 01:25:15;;;;;;;23.35;20.92;;;22.00;99.90;;;;;;4994913;28;20065;-76
2022/06/04 01:27:58;;;;;;;26.38;22.38;;;21.90;99.90;;;;;;4979084;28;20045;-76
2022/06/04 01:30:35;;;;;;;28.10;23.70;;;21.90;99.90;;;;;;4978710;28;20057;-78
2022/06/04 01:33:11;;;;;;;26.30;23.63;;;21.90;99.90;;;;;;4994693;28;20421;-76
2022/06/04 01:36:01;;;;;;;37.95;29.80;;;21.90;99.90;;;;;;4995193;28;20085;-76
2022/06/04 01:38:27;;;;;;;30.13;24.85;;;21.90;99.90;;;;;;4994583;28;20018;-77
2022/06/04 01:41:39;;;;;;;31.40;24.27;;;21.90;99.90;;;;;;4999744;28;20029;-78
2022/06/04 01:44:33;;;;;;;37.37;24.47;;;21.80;99.90;;;;;;5033897;28;20049;-78
2022/06/04 01:47:04;;;;;;;35.22;27.23;;;21.80;99.90;;;;;;5050347;28;20057;-77
2022/06/04 01:49:50;;;;;;;33.47;27.83;;;21.70;99.90;;;;;;5034375;28;20040;-77
2022/06/04 01:52:28;;;;;;;34.35;25.70;;;21.60;99.90;;;;;;5033626;28;20414;-79
2022/06/04 01:55:07;;;;;;;31.88;25.80;;;21.60;99.90;;;;;;5034035;28;20051;-80
2022/06/04 01:57:38;;;;;;;30.15;24.10;;;21.50;99.90;;;;;;5033894;28;20068;-79
2022/06/04 02:00:19;;;;;;;31.67;24.60;;;21.60;99.90;;;;;;5033431;28;20063;-77
2022/06/04 02:03:22;;;;;;;49.13;26.88;;;21.50;99.90;;;;;;5050413;28;20065;-78
2022/06/04 02:05:58;;;;;;;30.45;23.83;;;21.50;99.90;;;;;;5049827;28;20038;-77
2022/06/04 02:08:39;;;;;;;26.75;22.98;;;21.40;99.90;;;;;;5033683;28;20586;-79
2022/06/04 02:11:11;;;;;;;28.65;24.60;;;21.50;99.90;;;;;;5033744;28;20040;-77
2022/06/04 02:13:38;;;;;;;28.73;22.73;;;21.50;99.90;;;;;;5033507;28;20029;-77
2022/06/04 02:16:09;;;;;;;26.75;21.88;;;21.50;99.90;;;;;;5033608;28;20022;-77
2022/06/04 02:18:36;;;;;;;28.25;24.27;;;21.60;99.90;;;;;;5051361;28;20087;-77
2022/06/04 02:21:03;;;;;;;26.52;21.50;;;21.60;99.90;;;;;;5055779;28;20025;-77
2022/06/04 02:23:33;;;;;;;22.92;19.15;;;21.70;99.90;;;;;;5055390;28;20405;-77
2022/06/04 02:26:00;;;;;;;32.60;23.45;;;21.80;99.90;;;;;;5055946;28;20013;-78
2022/06/04 02:28:26;;;;;;;27.27;21.08;;;21.90;99.90;;;;;;5055342;28;20070;-76
2022/06/04 02:31:09;;;;;;;23.33;20.00;;;21.90;99.90;;;;;;5055596;28;20028;-77
2022/06/04 02:33:37;;;;;;;23.98;18.83;;;21.90;99.90;;;;;;5055523;28;20048;-78
2022/06/04 02:36:14;;;;;;;20.38;17.80;;;21.90;99.90;;;;;;5053839;28;20021;-77
2022/06/04 02:39:09;;;;;;;19.13;16.67;;;21.90;99.90;;;;;;5054198;28;20048;-75
2022/06/04 02:42:00;;;;;;;21.90;16.88;;;21.80;99.90;;;;;;5052682;28;20090;-76
2022/06/04 02:44:34;;;;;;;21.43;16.70;;;21.80;99.90;;;;;;5055308;28;20024;-78
2022/06/04 02:47:08;;;;;;;21.40;16.77;;;21.80;99.90;;;;;;5055520;28;20250;-77
2022/06/04 02:49:38;;;;;;;17.95;14.30;;;21.80;99.90;;;;;;5054974;28;20070;-77
2022/06/04 02:52:08;;;;;;;17.38;13.95;;;21.70;99.90;;;;;;5055260;28;20107;-77
2022/06/04 02:54:39;;;;;;;19.15;13.48;;;21.80;99.90;;;;;;5055033;28;20021;-77
2022/06/04 02:57:08;;;;;;;17.92;12.00;;;21.80;99.90;;;;;;5053498;28;20021;-78
2022/06/04 02:59:35;;;;;;;16.15;12.65;;;21.80;99.90;;;;;;5053665;28;20036;-77
2022/06/04 03:02:02;;;;;;;21.70;12.00;;;21.70;99.90;;;;;;5054665;28;20021;-77
2022/06/04 03:04:28;;;;;;;19.05;12.00;;;21.70;99.90;;;;;;5054458;28;20363;-76
2022/06/04 03:07:03;;;;;;;16.55;12.07;;;21.70;99.90;;;;;;5054662;28;20079;-75
2022/06/04 03:09:29;;;;;;;17.17;12.25;;;21.70;99.90;;;;;;5053361;28;20025;-77
2022/06/04 03:11:55;;;;;;;16.63;12.50;;;21.70;99.90;;;;;;5054497;28;20044;-78
2022/06/04 03:14:20;;;;;;;18.80;11.45;;;21.70;99.90;;;;;;5054937;28;20424;-77
2022/06/04 03:16:48;;;;;;;17.52;12.30;;;21.80;99.90;;;;;;5053213;28;20511;-77
2022/06/04 03:19:14;;;;;;;17.58;13.32;;;21.70;99.90;;;;;;5053604;28;20037;-77
2022/06/04 03:21:41;;;;;;;17.77;14.02;;;21.70;99.90;;;;;;5054369;28;20107;-78
2022/06/04 03:24:09;;;;;;;19.13;13.15;;;21.70;99.90;;;;;;5054182;28;20112;-78
2022/06/04 03:26:35;;;;;;;20.58;13.60;;;21.70;99.90;;;;;;5054193;28;20366;-78
2022/06/04 03:29:02;;;;;;;19.98;14.02;;;21.70;99.90;;;;;;5054155;28;20020;-78
2022/06/04 03:31:29;;;;;;;25.92;15.05;;;21.60;99.90;;;;;;5052888;28;20120;-76
2022/06/04 03:33:56;;;;;;;21.23;14.27;;;21.70;99.90;;;;;;5054376;28;20017;-77
2022/06/04 03:36:22;;;;;;;23.42;15.70;;;21.60;99.90;;;;;;5054317;28;20041;-77
2022/06/04 03:38:58;;;;;;;19.65;14.70;;;21.60;99.90;;;;;;5053974;28;20028;-76
2022/06/04 03:41:24;;;;;;;22.45;16.80;;;21.60;99.90;;;;;;5054318;28;20021;-78
2022/06/04 03:43:52;;;;;;;27.40;17.50;;;21.60;99.90;;;;;;5052228;28;20037;-77
2022/06/04 03:46:27;;;;;;;22.10;18.45;;;21.60;99.90;;;;;;5054181;28;20028;-77
2022/06/04 03:48:54;;;;;;;23.63;19.23;;;21.60;99.90;;;;;;5054266;28;20021;-76
2022/06/04 03:51:21;;;;;;;30.38;19.77;;;21.60;99.90;;;;;;5053809;28;20108;-77
2022/06/04 03:53:47;;;;;;;27.92;20.33;;;21.70;99.90;;;;;;5054067;28;20028;-78
2022/06/04 03:56:13;;;;;;;27.02;21.70;;;21.70;99.90;;;;;;5053990;28;20355;-77
2022/06/04 03:58:38;;;;;;;27.08;20.30;;;21.80;99.90;;;;;;5052614;28;20107;-77
2022/06/04 04:01:25;;;;;;;32.28;21.83;;;21.80;99.90;;;;;;5053972;28;20463;-77
2022/06/04 04:03:51;;;;;;;27.45;22.15;;;21.80;99.90;;;;;;5054031;28;20068;-76
2022/06/04 04:06:22;;;;;;;31.38;22.40;;;21.90;99.90;;;;;;5053330;28;20035;-76
2022/06/04 04:08:48;;;;;;;29.92;22.35;;;21.90;99.90;;;;;;5052675;28;20056;-78
2022/06/04 04:11:17;;;;;;;27.38;22.60;;;22.00;99.90;;;;;;5052598;28;20049;-77
2022/06/04 04:13:44;;;;;;;28.13;23.30;;;22.00;99.90;;;;;;5053562;28;20021;-77
2022/06/04 04:16:11;;;;;;;27.55;23.30;;;22.10;99.90;;;;;;5053792;28;20017;-77
2022/06/04 04:18:38;;;;;;;26.45;22.80;;;22.20;99.90;;;;;;5052150;28;20041;-76
2022/06/04 04:21:07;;;;;;;27.67;22.35;;;22.20;99.90;;;;;;5053067;28;20352;-76
2022/06/04 04:23:33;;;;;;;29.60;22.60;;;22.20;99.90;;;;;;5052369;28;20451;-77
2022/06/04 04:25:59;;;;;;;27.08;23.80;;;22.20;99.90;;;;;;5053475;28;20016;-77
2022/06/04 04:28:25;;;;;;;26.38;22.27;;;22.30;99.90;;;;;;5053656;28;20017;-77
2022/06/04 04:30:51;;;;;;;29.13;24.30;;;22.30;99.90;;;;;;5055965;28;20021;-76
2022/06/04 04:33:17;;;;;;;28.65;23.75;;;22.40;99.90;;;;;;5057678;28;20032;-77
2022/06/04 04:35:43;;;;;;;31.38;23.17;;;22.40;99.90;;;;;;5057693;28;20025;-78
2022/06/04 04:38:11;;;;;;;27.48;22.33;;;22.50;99.90;;;;;;5057632;28;20071;-76
2022/06/04 04:40:37;;;;;;;28.02;21.80;;;22.50;99.90;;;;;;5057746;28;20017;-77
2022/06/04 04:43:03;;;;;;;26.10;23.00;;;22.60;99.90;;;;;;5057315;28;20417;-77
2022/06/04 04:45:29;;;;;;;28.05;22.77;;;22.60;99.90;;;;;;5056223;28;20469;-76
2022/06/04 04:47:56;;;;;;;24.92;20.58;;;22.70;99.90;;;;;;5057154;28;20021;-77
2022/06/04 04:50:29;;;;;;;28.80;20.60;;;22.70;99.90;;;;;;5057129;28;20443;-76
2022/06/04 04:52:57;;;;;;;28.60;22.30;;;22.70;99.90;;;;;;5057412;28;20459;-78
2022/06/04 04:55:24;;;;;;;30.20;22.70;;;22.80;99.90;;;;;;5056771;28;20052;-76
2022/06/04 04:57:50;;;;;;;23.55;21.13;;;;;;;;;;5057390;28;20021;-77
2022/06/04 05:00:16;;;;;;;28.08;21.83;;;23.00;99.90;;;;;;5057004;28;20021;-77
2022/06/04 05:02:43;;;;;;;22.27;18.98;;;23.20;99.90;;;;;;5056845;28;20032;-76
2022/06/04 05:05:11;;;;;;;24.98;18.08;;;;;;;;;;5057501;28;20047;-76
2022/06/04 05:07:38;;;;;;;23.48;18.20;;;23.30;99.90;;;;;;5057430;28;20017;-75
2022/06/04 05:10:05;;;;;;;21.50;18.60;;;23.50;99.90;;;;;;5056702;28;20017;-77
2022/06/04 05:12:31;;;;;;;22.60;16.48;;;23.60;99.90;;;;;;5057024;28;20032;-76
2022/06/04 05:14:57;;;;;;;23.58;16.63;;;23.70;99.90;;;;;;5056732;28;20029;-77
2022/06/04 05:17:22;;;;;;;23.35;16.90;;;23.70;99.90;;;;;;5056495;28;20025;-77
2022/06/04 05:19:48;;;;;;;20.95;16.60;;;23.80;99.90;;;;;;5056767;28;20025;-78
2022/06/04 05:22:14;;;;;;;23.65;16.67;;;23.90;99.90;;;;;;5056540;28;20039;-79
2022/06/04 05:24:40;;;;;;;27.95;19.42;;;;;;;;;;5056891;28;20028;-78
2022/06/04 05:27:06;;;;;;;27.08;18.88;;;;;;;;;;5056823;28;20032;-76
2022/06/04 05:29:34;;;;;;;18.05;15.35;;;;;;;;;;5056423;28;20406;-77
2022/06/04 05:32:02;;;;;;;19.05;11.75;;;;;;;;;;5056451;28;20016;-76
2022/06/04 05:34:28;;;;;;;15.15;10.15;;;;;;;;;;5055033;28;20023;-75
2022/06/04 05:36:54;;;;;;;12.27;10.40;;;;;;;;;;5056395;28;20025;-77
2022/06/04 05:39:21;;;;;;;16.65;11.30;;;;;;;;;;5056776;28;20029;-76
2022/06/04 05:41:47;;;;;;;18.33;10.35;;;;;;;;;;5054666;28;20021;-77
2022/06/04 05:44:14;;;;;;;17.75;10.95;;;;;;;;;;5054777;28;20057;-76
2022/06/04 05:46:42;;;;;;;15.30;9.75;;;;;;;;;;5055465;28;20025;-77
2022/06/04 05:49:10;;;;;;;17.75;10.40;;;;;;;;;;5056392;28;20068;-76
2022/06/04 05:51:37;;;;;;;13.35;10.32;;;;;;;;;;5056014;28;20020;-76
2022/06/04 05:54:03;;;;;;;18.92;9.82;;;;;;;;;;5056517;28;20028;-76
2022/06/04 05:56:31;;;;;;;15.35;8.82;;;;;;;;;;5054913;28;20017;-76
2022/06/04 05:58:58;;;;;;;17.33;10.00;;;;;;;;;;5055567;28;20336;-77
2022/06/04 06:01:25;;;;;;;25.63;10.85;;;;;;;;;;5055806;28;20009;-77
2022/06/04 06:03:52;;;;;;;14.13;10.15;;;;;;;;;;5055871;28;20021;-77
2022/06/04 06:06:19;;;;;;;12.38;10.00;;;;;;;;;;5055830;28;20021;-77
2022/06/04 06:08:46;;;;;;;12.70;10.35;;;;;;;;;;5055758;28;20017;-76
2022/06/04 06:11:15;;;;;;;15.52;10.48;;;;;;;;;;5054866;28;20025;-77
2022/06/04 06:13:42;;;;;;;14.40;8.88;;;;;;;;;;5055885;28;20052;-76
2022/06/04 06:16:10;;;;;;;22.65;10.70;;;;;;;;;;5055765;28;20025;-75
2022/06/04 06:18:36;;;;;;;14.65;9.02;;;;;;;;;;5055266;28;20041;-78
2022/06/04 06:21:10;;;;;;;15.02;8.80;;;;;;;;;;5055093;28;20017;-77
2022/06/04 06:23:36;;;;;;;11.70;7.97;;;;;;;;;;5055093;28;20021;-77
2022/06/04 06:26:11;;;;;;;11.38;7.72;;;;;;;;;;5053503;28;20071;-76
2022/06/04 06:28:39;;;;;;;15.73;7.85;;;;;;;;;;5055370;28;20013;-77
2022/06/04 06:31:06;;;;;;;12.63;8.00;;;;;;;;;;5053506;28;20350;-76
2022/06/04 06:33:32;;;;;;;11.93;8.23;;;;;;;;;;5053992;28;20366;-76
2022/06/04 06:36:05;;;;;;;14.65;8.43;;;;;;;;;;5054186;28;20090;-77
2022/06/04 06:38:31;;;;;;;11.15;7.53;;;;;;;;;;5054467;28;20035;-76
2022/06/04 06:40:58;;;;;;;19.50;8.48;;;;;;;;;;5054250;28;20401;-75
2022/06/04 06:46:13;;;;;;;13.65;8.35;;;;;;;;;;5052230;28;20020;-77
2022/06/04 06:48:40;;;;;;;14.77;8.18;;;;;;;;;;5054373;28;20012;-75
2022/06/04 06:51:26;;;;;;;14.73;7.70;;;;;;;;;;5054309;28;20017;-76
2022/06/04 06:53:55;;;;;;;12.82;7.78;;;;;;;;;;5051676;28;20032;-75
2022/06/04 06:56:29;;;;;;;15.85;8.02;;;;;;;;;;5054117;28;20419;-77
2022/06/04 06:58:56;;;;;;;12.85;8.43;;;;;;;;;;5054227;28;20063;-74
2022/06/04 07:01:24;;;;;;;15.02;8.65;;;;;;;;;;5054071;28;20017;-76
2022/06/04 07:03:51;;;;;;;12.68;7.78;;;;;;;;;;5054010;28;20023;-75
2022/06/04 07:06:27;;;;;;;16.63;8.20;;;;;;;;;;5054384;28;20016;-74
2022/06/04 07:08:53;;;;;;;12.30;7.15;;;;;;;;;;5052299;28;20025;-75
2022/06/04 07:11:20;;;;;;;13.05;7.35;;;;;;;;;;5054219;28;20067;-75
2022/06/04 07:13:46;;;;;;;11.40;7.60;;;;;;;;;;5053765;28;20359;-73
2022/06/04 07:16:12;;;;;;;11.43;7.40;;;;;;;;;;5054120;28;20069;-75
2022/06/04 07:18:38;;;;;;;14.52;7.72;;;;;;;;;;5052389;28;20048;-76
2022/06/04 07:21:05;;;;;;;12.90;6.38;;;;;;;;;;5053820;28;20034;-74
2022/06/04 07:23:34;;;;;;;13.55;7.55;;;;;;;;;;5054161;28;20029;-73
2022/06/04 07:26:00;;;;;;;14.45;7.22;;;;;;;;;;5054487;28;20045;-73
2022/06/04 07:28:27;;;;;;;11.30;7.15;;;;;;;;;;5053824;28;20398;-72
2022/06/04 07:30:54;;;;;;;12.88;7.30;;;;;;;;;;5054208;28;20013;-73
2022/06/04 07:33:20;;;;;;;14.30;7.40;;;;;;;;;;5054388;28;20021;-74
2022/06/04 07:35:51;;;;;;;19.92;8.38;;;;;;;;;;5054084;28;20064;-73
2022/06/04 07:38:18;;;;;;;13.45;7.78;;;;;;;;;;5054084;28;20024;-73
2022/06/04 07:40:45;;;;;;;15.30;7.00;;;;;;;;;;5054041;28;20060;-75
2022/06/04 07:43:12;;;;;;;15.38;7.68;;;;;;;;;;5053828;28;20094;-74
2022/06/04 07:45:38;;;;;;;9.48;7.00;;;;;;;;;;5053918;28;20524;-73
2022/06/04 07:48:05;;;;;;;18.42;7.80;;;;;;;;;;5054116;28;20048;-74
2022/06/04 07:50:32;;;;;;;15.38;8.07;;;;;;;;;;5053461;28;20017;-73
2022/06/04 07:52:59;;;;;;;13.60;7.40;;;;;;;;;;5052608;28;20047;-75
2022/06/04 07:55:25;;;;;;;14.75;8.15;;;;;;;;;;5050979;28;20017;-74
2022/06/04 07:57:52;;;;;;;9.60;7.70;;;;;;;;;;5053480;28;20028;-72
2022/06/04 08:00:25;;;;;;;14.63;8.20;;;;;;;;;;5054307;28;20126;-75
2022/06/04 08:02:52;;;;;;;16.85;7.82;;;;;;;;;;5053169;28;20032;-72
2022/06/04 08:05:18;;;;;;;16.33;7.80;;;;;;;;;;5052344;28;20056;-72
2022/06/04 08:07:44;;;;;;;12.60;7.60;;;;;;;;;;5053658;28;20104;-74
2022/06/04 08:10:11;;;;;;;12.52;6.95;;;;;;;;;;5053749;28;20032;-72
2022/06/04 08:12:46;;;;;;;15.45;8.60;;;;;;;;;;5052964;28;20021;-72
2022/06/04 08:15:14;;;;;;;15.02;8.32;;;;;;;;;;5052989;28;20067;-73
2022/06/04 08:17:40;;;;;;;12.95;7.65;;;;;;;;;;5053013;28;20065;-74
2022/06/04 08:20:06;;;;;;;19.05;8.10;;;;;;;;;;5053443;28;20050;-72
2022/06/04 08:22:33;;;;;;;13.68;7.30;;;;;;;;;;5053681;28;20478;-73
2022/06/04 08:24:59;;;;;;;17.85;9.00;;;;;;;;;;5053163;28;20021;-73
2022/06/04 08:27:25;;;;;;;11.82;8.85;;;;;;;;;;5053291;28;20013;-75
2022/06/04 08:29:51;;;;;;;12.98;9.60;;;;;;;;;;5053800;28;20024;-72
2022/06/04 08:32:18;;;;;;;14.60;9.50;;;;;;;;;;5053070;28;20416;-73
2022/06/04 08:34:44;;;;;;;17.90;9.63;;;;;;;;;;5053888;28;20029;-74
2022/06/04 08:37:10;;;;;;;14.25;9.55;;;;;;;;;;5053584;28;20024;-74
2022/06/04 08:39:37;;;;;;;12.48;9.60;;;;;;;;;;5053014;28;20402;-72
2022/06/04 08:42:05;;;;;;;14.30;9.95;;;;;;;;;;5053107;28;20017;-73
2022/06/04 08:44:36;;;;;;;12.60;9.75;;;;;;;;;;5052941;28;20029;-73
2022/06/04 08:47:06;;;;;;;15.05;9.35;;;;;;;;;;5052861;28;20363;-74
2022/06/04 08:49:39;;;;;;;15.07;9.50;;;;;;;;;;5052266;28;20486;-72
2022/06/04 08:52:14;;;;;;;15.88;9.70;;;;;;;;;;5051533;28;20025;-73
2022/06/04 08:57:35;;;;;;;13.15;10.20;;;;;;;;;;5053271;28;20070;-73
2022/06/04 09:00:05;;;;;;;11.27;9.82;;;;;;;;;;5052846;28;20100;-75
2022/06/04 09:02:39;;;;;;;15.88;10.45;;;;;;;;;;5051660;28;20021;-74
2022/06/04 09:05:16;;;;;;;14.48;10.68;;;;;;;;;;5049774;28;20013;-75
2022/06/04 09:07:45;;;;;;;16.25;10.30;;;;;;;;;;5049193;28;20013;-75
2022/06/04 09:10:23;;;;;;;16.10;8.98;;;;;;;;;;5051656;28;20082;-74
2022/06/04 09:12:59;;;;;;;14.07;9.23;;;;;;;;;;5050221;28;20021;-76
2022/06/04 09:15:29;;;;;;;11.52;9.55;;;;;;;;;;5049903;28;20029;-76
2022/06/04 09:17:57;;;;;;;12.77;9.37;;;;;;;;;;5055492;28;20419;-74
2022/06/04 09:20:37;;;;;;;12.13;8.10;;;;;;;;;;5055019;28;20358;-75
2022/06/04 09:23:13;;;;;;;13.45;9.98;;;;;;;;;;5051905;28;20154;-73
2022/06/04 09:25:55;;;;;;;15.48;9.20;;;;;;;;;;5054806;28;20020;-75
2022/06/04 09:28:31;;;;;;;13.85;9.15;;;;;;;;;;5055299;28;20016;-76
2022/06/04 09:30:57;;;;;;;12.05;9.13;;;;;;;;;;5055487;28;20017;-75
2022/06/04 09:33:42;;;;;;;19.27;8.98;;;;;;;;;;5054552;28;20354;-75
2022/06/04 09:36:29;;;;;;;11.93;7.97;;;;;;;;;;5053868;28;20020;-77
2022/06/04 09:38:59;;;;;;;12.50;8.27;;;;;;;;;;5055052;28;20024;-74
2022/06/04 09:41:26;;;;;;;13.35;7.80;;;;;;;;;;5053274;28;20147;-74
2022/06/04 09:44:13;;;;;;;14.15;9.30;;;;;;;;;;5055968;28;20108;-77
2022/06/04 09:46:43;;;;;;;13.35;7.90;;;;;;;;;;5055089;28;20074;-75
2022/06/04 09:49:20;;;;;;;17.08;8.15;;;;;;;;;;5055341;28;20025;-76
2022/06/04 09:51:46;;;;;;;18.30;8.00;;;;;;;;;;5056124;28;20024;-75
2022/06/04 09:54:29;;;;;;;18.40;8.38;;;;;;;;;;5056318;28;20023;-77
2022/06/04 09:56:57;;;;;;;15.57;9.13;;;;;;;;;;5055739;28;20091;-76
2022/06/04 09:59:30;;;;;;;11.68;8.13;;;;;;;;;;5055826;28;20017;-76
2022/06/04 10:01:58;;;;;;;12.63;8.13;;;;;;;;;;5053009;28;20024;-77
2022/06/04 10:04:24;;;;;;;12.77;8.65;;;;;;;;;;5055571;28;20053;-74
2022/06/04 10:06:50;;;;;;;10.52;7.85;;;;;;;;;;5055616;28;20017;-75
2022/06/04 10:12:07;;;;;;;11.52;8.35;;;;;;;;;;5055247;28;20020;-76
2022/06/04 10:14:37;;;;;;;14.23;7.28;;;;;;;;;;5054135;28;20067;-77
2022/06/04 10:17:06;;;;;;;15.18;7.95;;;;;;;;;;5054944;28;20039;-75
2022/06/04 10:19:34;;;;;;;9.45;7.20;;;;;;;;;;5055107;28;20029;-74
2022/06/04 10:22:11;;;;;;;11.55;6.90;;;;;;;;;;5055777;28;20017;-77
2022/06/04 10:24:48;;;;;;;9.35;6.57;;;;;;;;;;5055439;28;20108;-75
2022/06/04 10:27:19;;;;;;;9.70;7.32;;;;;;;;;;5055587;28;20470;-75
2022/06/04 10:30:03;;;;;;;9.13;7.53;;;;;;;;;;5055324;28;20443;-74
2022/06/04 10:32:35;;;;;;;12.63;6.80;;;;;;;;;;5055843;28;20020;-75
2022/06/04 10:35:21;;;;;;;16.77;8.15;;;;;;;;;;5055335;28;20045;-76
2022/06/04 10:37:48;;;;;;;9.45;8.32;;;;;;;;;;5055285;28;20047;-76
2022/06/04 10:40:33;;;;;;;10.57;7.90;;;;;;;;;;5055154;28;20013;-74
2022/06/04 10:43:26;;;;;;;11.55;8.93;;;;;;;;;;5055285;28;20440;-76
2022/06/04 10:45:52;;;;;;;13.02;7.70;;;;;;;;;;5053317;28;20033;-75
2022/06/04 10:48:18;;;;;;;12.75;8.43;;;;;;;;;;5054119;28;20016;-75
2022/06/04 10:54:06;;;;;;;13.32;8.52;;;;;;;;;;5054901;28;20466;-76
2022/06/04 10:56:35;;;;;;;12.40;7.78;;;;;;;;;;5054851;28;20478;-75
2022/06/04 10:59:15;;;;;;;15.25;8.35;;;;;;;;;;5054524;28;20017;-74
2022/06/04 11:01:46;;;;;;;12.13;8.52;;;;;;;;;;5055068;28;20090;-74
2022/06/04 11:04:15;;;;;;;11.35;8.10;;;;;;;;;;5054966;28;20163;-75
2022/06/04 11:06:50;;;;;;;17.20;8.75;;;;;;;;;;5054593;28;20017;-75
2022/06/04 11:09:19;;;;;;;13.25;8.45;;;;;;;;;;5053551;28;20474;-76
2022/06/04 11:11:51;;;;;;;15.98;8.40;;;;;;;;;;5054266;28;20017;-77
2022/06/04 11:14:25;;;;;;;13.98;7.70;;;;;;;;;;5054820;28;20024;-76
2022/06/04 11:16:54;;;;;;;9.70;7.43;;;;;;;;;;5054416;28;20056;-74
2022/06/04 11:19:23;;;;;;;10.75;7.60;;;;;;;;;;5054715;28;20489;-75
2022/06/04 11:21:52;;;;;;;15.48;8.95;;;;;;;;;;5054942;28;20048;-74
2022/06/04 11:24:20;;;;;;;12.93;7.05;;;;;;;;;;5053263;28;20120;-76
2022/06/04 11:27:07;;;;;;;13.02;7.70;;;;;;;;;;5053904;28;20069;-74
2022/06/04 11:29:34;;;;;;;9.15;6.95;;;;;;;;;;5054614;28;20090;-77
2022/06/04 11:32:15;;;;;;;11.80;6.72;;;;;;;;;;5054728;28;20474;-75
2022/06/04 11:34:56;;;;;;;8.98;6.47;;;;;;;;;;5054420;28;20029;-75
2022/06/04 11:37:23;;;;;;;;;;;;;;;;;;5054496;28;20024;-74
2022/06/04 11:39:55;;;;;;;10.45;7.03;;;;;;;;;;5053555;28;20423;-75
2022/06/04 11:42:51;;;;;;;15.15;11.25;;;;;;;;;;5054609;28;20024;-76
2022/06/04 11:45:17;;;;;;;12.70;6.68;;;;;;;;;;5015407;28;20442;-77
2022/06/04 11:47:59;;;;;;;13.38;5.90;;;;;;;;;;5031638;28;20100;-74
2022/06/04 11:50:33;;;;;;;10.52;6.88;;;;;;;;;;5015411;28;20030;-75
2022/06/04 11:53:14;;;;;;;12.25;5.72;;;;;;;;;;5032046;28;20033;-75
2022/06/04 11:55:48;;;;;;;7.07;5.40;;;;;;;;;;5031605;28;20041;-75
2022/06/04 11:58:14;;;;;;;11.27;5.13;;;;;;;;;;5031937;28;20468;-74
2022/06/04 12:00:41;;;;;;;10.82;5.07;;;;;;;;;;5031826;28;20026;-77
2022/06/04 12:03:08;;;;;;;10.02;5.72;;;;;;;;;;5031628;28;20083;-75
2022/06/04 12:05:37;;;;;;;9.70;4.85;;;;;;;;;;5031834;28;20045;-75
2022/06/04 12:08:07;;;;;;;18.88;5.82;;;;;;;;;;5031312;28;20037;-77
2022/06/04 12:10:42;;;;;;;10.70;6.10;;;;;;;;;;5031759;28;20022;-76
2022/06/04 12:13:26;;;;;;;7.95;5.00;;;;;;;;;;5031601;28;20026;-77
2022/06/04 12:15:55;;;;;;;7.40;5.20;;;;;;;;;;5031338;28;20029;-76
2022/06/04 12:18:26;;;;;;;12.48;5.53;;;;;;;;;;5014760;28;20037;-76
2022/06/04 12:26:47;;;;;;;12.57;6.38;;;;;;;;;;5053789;28;20032;-76
2022/06/04 12:29:42;;;;;;;12.55;5.45;;;;;;;;;;5052109;28;20014;-76
2022/06/04 12:32:18;;;;;;;7.57;5.72;;;;;;;;;;5043333;28;20029;-75
2022/06/04 12:34:44;;;;;;;8.02;5.68;;;;;;;;;;5052371;28;20021;-76
2022/06/04 12:37:22;;;;;;;14.68;6.43;;;;;;;;;;5053297;28;20028;-74
2022/06/04 12:39:48;;;;;;;11.77;7.03;;;;;;;;;;5053739;28;20028;-76
2022/06/04 12:42:22;;;;;;;16.25;6.32;;;;;;;;;;5053551;28;20017;-75
2022/06/04 12:44:56;;;;;;;10.60;5.55;;;;;;;;;;5052861;28;20093;-78
2022/06/04 12:47:28;;;;;;;9.07;5.97;;;;;;;;;;5052243;28;20025;-75
2022/06/04 12:49:58;;;;;;;11.23;6.40;;;;;;;;;;5053206;28;20447;-76
2022/06/04 12:52:44;;;;;;;7.50;5.40;;;;;;;;;;5056896;28;20017;-76
2022/06/04 12:55:11;;;;;;;7.20;4.97;;;;;;;;;;5057155;28;20025;-75
2022/06/04 12:57:40;;;;;;;11.98;6.40;;;;;;;;;;5057105;28;20096;-74
2022/06/04 13:00:21;;;;;;;11.80;6.35;;;;;;;;;;5057347;28;20025;-74
2022/06/04 13:02:47;;;;;;;;;;;;;;;;;;5057559;28;20017;-72
2022/06/04 13:05:21;;;;;;;7.25;5.95;;;;;;;;;;5056906;28;19996;-73
2022/06/04 13:08:00;;;;;;;8.68;6.38;;;;;;;;;;5057366;28;20021;-74
2022/06/04 13:10:48;;;;;;;10.88;5.70;;;;;;;;;;5057492;28;20021;-75
2022/06/04 13:13:20;;;;;;;9.13;5.35;;;;;;;;;;5056903;28;20036;-74
2022/06/04 13:15:54;;;;;;;10.35;5.63;;;;;;;;;;5056848;28;20340;-74
2022/06/04 13:18:28;;;;;;;16.05;5.20;;;;;;;;;;5056728;28;20083;-74
2022/06/04 13:21:00;;;;;;;10.18;4.80;;;;;;;;;;5057081;28;20031;-73
2022/06/04 13:23:29;;;;;;;11.25;6.88;;;;;;;;;;5057056;28;20464;-74
2022/06/04 13:26:04;;;;;;;12.32;6.45;;;;;;;;;;5056555;28;20032;-75
2022/06/04 13:28:38;;;;;;;11.70;7.43;;;;;;;;;;5056380;28;20070;-75
2022/06/04 13:31:25;;;;;;;13.70;7.07;;;;;;;;;;5056283;28;20024;-75
2022/06/04 13:33:52;;;;;;;8.13;5.05;;;;;;;;;;5056276;28;20435;-76
2022/06/04 13:36:23;;;;;;;12.07;5.78;;;;;;;;;;5056697;28;20017;-76
2022/06/04 13:38:51;;;;;;;9.85;5.35;;;;;;;;;;5056349;28;20017;-75
2022/06/04 13:44:05;;;;;;;8.43;5.25;;;;;;;;;;5056233;28;20170;-77
2022/06/04 13:46:31;;;;;;;10.77;5.68;;;;;;;;;;5054899;28;20020;-77
2022/06/04 13:49:03;;;;;;;16.10;6.60;;;;;;;;;;5056339;28;20025;-78
2022/06/04 13:51:30;;;;;;;10.05;5.72;;;;;;;;;;5053631;28;20034;-76
2022/06/04 13:53:56;;;;;;;12.95;5.13;;;;;;;;;;5055002;28;20352;-76
2022/06/04 13:56:26;;;;;;;12.90;5.00;;;;;;;;;;5055933;28;20056;-77
2022/06/04 13:58:52;;;;;;;12.60;4.68;;;;;;;;;;5056602;28;20047;-77
2022/06/04 14:01:32;;;;;;;16.90;5.97;;;;;;;;;;5055733;28;20024;-75
2022/06/04 14:06:46;;;;;;;12.00;5.35;;;;;;;;;;5055505;28;20032;-76
2022/06/04 14:09:23;;;;;;;10.35;5.75;;;;;;;;;;5055992;28;20017;-76
2022/06/04 14:12:11;;;;;;;9.05;5.18;;;;;;;;;;5055981;28;20108;-79
2022/06/04 14:14:56;;;;;;;10.68;5.13;;;;;;;;;;5055312;28;20398;-76
2022/06/04 14:17:29;;;;;;;16.52;5.85;;;;;;;;;;5055696;28;20044;-76
2022/06/04 14:19:55;;;;;;;13.23;4.82;;;;;;;;;;5054614;28;20471;-77
2022/06/04 14:22:28;;;;;;;24.27;5.65;;;;;;;;;;5055409;28;20012;-77
2022/06/04 14:25:13;;;;;;;10.93;5.18;;;;;;;;;;5055716;28;20024;-74
2022/06/04 14:28:00;;;;;;;10.90;5.13;;;;;;;;;;5055585;28;20029;-75
2022/06/04 14:30:32;;;;;;;11.48;4.65;;;;;;;;;;5055441;28;20017;-75
2022/06/04 14:33:00;;;;;;;13.35;5.18;;;;;;;;;;5055771;28;20474;-77
2022/06/04 14:35:37;;;;;;;18.95;5.13;;;;;;;;;;5055466;28;20021;-76